Time;durP1;ratioP1;P1;durP2;ratioP2;P2;SDS_P1;SDS_P2;PMS_P1;PMS_P2;Temp;Humidity;BMP_temperature;BMP_pressure;BME280_temperature;BME280_humidity;BME280_pressure;Samples;Min_cycle;Max_cycle;Signal;HPM_P1;HPM_P2
2022/02/06 00:00:20;;;;;;;8.63;3.20;;;;;;;3.14;72.66;100319.10;1665854;85;21523;-72
2022/02/06 00:02:49;;;;;;;5.83;2.17;;;;;;;3.17;72.60;100310.95;1729980;83;21008;-73
2022/02/06 00:05:16;;;;;;;4.50;2.08;;;;;;;3.21;72.56;100307.10;1730640;82;21041;-73
2022/02/06 00:07:42;;;;;;;7.47;1.77;;;;;;;3.22;72.51;100306.16;1730186;82;21060;-72
2022/02/06 00:10:08;;;;;;;9.00;2.40;;;;;;;3.22;72.45;100307.47;1730396;82;21439;-72
2022/02/06 00:12:34;;;;;;;6.97;2.20;;;;;;;3.20;72.44;100308.05;1730805;82;21442;-73
2022/02/06 00:15:01;;;;;;;8.18;2.30;;;;;;;3.23;72.40;100301.25;1730421;83;21611;-73
2022/02/06 00:17:32;;;;;;;5.72;2.20;;;;;;;3.23;72.36;100295.98;1730384;83;20972;-72
2022/02/06 00:19:55;;;;;;;5.28;2.33;;;;;;;3.21;72.35;100284.70;1728756;83;21069;-72
2022/02/06 00:23:24;;;;;;;7.80;2.12;;;;;;;3.20;72.33;100289.61;1730423;83;20909;-72
2022/02/06 00:27:45;;;;;;;8.85;2.62;;;;;;;3.18;72.34;100297.30;1730419;82;21215;-73
2022/02/06 00:30:08;;;;;;;6.22;2.33;;;;;;;3.14;72.38;100271.68;1726717;83;21477;-73
2022/02/06 00:32:33;;;;;;;7.92;2.30;;;;;;;3.13;72.39;100277.91;1728283;83;20985;-73
2022/02/06 00:40:14;;;;;;;6.90;2.17;;;;;;;3.10;72.51;100261.03;1730554;83;21086;-72
2022/02/06 00:42:40;;;;;;;5.03;1.90;;;;;;;3.11;72.57;100262.72;1730394;83;21017;-72
2022/02/06 00:45:07;;;;;;;5.85;1.82;;;;;;;3.10;72.62;100250.50;1730324;82;21004;-72
2022/02/06 00:47:33;;;;;;;7.75;3.50;;;;;;;3.09;72.65;100252.80;1730393;83;21443;-72
2022/02/06 00:49:59;;;;;;;4.00;1.75;;;;;;;3.10;72.72;100247.86;1730403;82;20969;-72
2022/02/06 00:52:32;;;;;;;5.50;2.00;;;;;;;3.10;72.77;100245.23;1730506;83;21077;-72
2022/02/06 00:54:53;;;;;;;9.50;2.00;;;;;;;3.11;72.82;100233.73;1745207;81;21524;-73
2022/02/06 00:57:20;;;;;;;8.33;3.00;;;;;;;3.13;72.87;100235.75;1757811;80;21084;-73
2022/02/06 00:59:46;;;;;;;9.93;2.37;;;;;;;3.14;72.91;100241.38;1757121;81;21022;-72
2022/02/06 01:02:12;;;;;;;4.17;2.15;;;;;;;3.12;72.95;100236.73;1757092;81;21002;-72
2022/02/06 01:04:38;;;;;;;5.55;1.72;;;;;;;3.13;73.01;100226.53;1757360;81;21123;-72
2022/02/06 01:07:04;;;;;;;7.97;3.52;;;;;;;3.14;73.02;100230.00;1757293;81;20894;-72
2022/02/06 01:09:30;;;;;;;11.15;4.00;;;;;;;3.13;73.06;100221.26;1757556;81;20985;-72
2022/02/06 01:11:57;;;;;;;7.35;2.02;;;;;;;3.11;73.08;100225.83;1757547;81;20997;-72
2022/02/06 01:17:18;;;;;;;6.35;2.45;;;;;;;3.13;73.17;100215.98;1686961;81;21286;-72
2022/02/06 01:19:42;;;;;;;9.20;1.90;;;;;;;3.14;73.24;100211.56;1710528;83;21038;-73
2022/02/06 01:22:07;;;;;;;6.28;2.20;;;;;;;3.14;73.28;100215.52;1675703;84;34679;-73
2022/02/06 01:27:11;;;;;;;10.30;2.90;;;;;;;3.05;73.45;100207.91;1713979;83;21070;-73
2022/02/06 01:29:45;;;;;;;4.05;2.15;;;;;;;2.97;73.58;100220.86;1694735;84;21809;-73
2022/02/06 01:32:14;;;;;;;6.17;2.40;;;;;;;2.90;73.73;100215.74;1711688;83;21098;-73
2022/02/06 01:34:44;;;;;;;10.53;2.70;;;;;;;2.82;73.89;100208.94;1694998;84;21007;-73
2022/02/06 01:37:24;;;;;;;6.83;2.83;;;;;;;2.72;74.06;100200.97;1712182;83;21069;-73
2022/02/06 01:42:59;;;;;;;7.22;2.10;;;;;;;2.62;74.36;100178.14;1713594;83;21064;-73
2022/02/06 01:45:12;;;;;;;9.13;2.62;;;;;;;2.58;74.54;100169.66;1691751;84;21566;-73
2022/02/06 02:08:40;;;;;;;10.48;3.22;;;;;;;2.33;76.08;100120.82;1660069;85;21137;-73
2022/02/06 02:24:08;;;;;;;10.85;3.98;;;;;;;2.24;77.05;100084.75;1687040;85;21097;-73
2022/02/06 02:45:38;;;;;;;9.35;3.37;;;;;;;2.11;78.02;100036.70;1687383;84;21086;-73
2022/02/06 02:48:00;;;;;;;9.18;3.30;;;;;;;2.11;78.19;100036.70;1684270;84;21120;-73
2022/02/06 02:50:23;;;;;;;9.00;4.15;;;;;;;2.10;78.35;100021.91;1685390;85;21578;-73
2022/02/06 02:55:39;;;;;;;6.97;3.22;;;;;;;2.09;78.67;100013.66;1687148;85;21067;-73
2022/02/06 03:00:45;;;;;;;8.33;3.33;;;;;;;2.05;78.88;100013.55;1716938;83;21865;-73
2022/02/06 03:05:42;;;;;;;5.95;2.12;;;;;;;2.03;79.08;100010.22;1716518;82;21003;-73
2022/02/06 03:08:08;;;;;;;5.28;2.62;;;;;;;2.04;79.17;99993.49;1716873;83;21018;-73
2022/02/06 03:10:35;;;;;;;4.75;2.25;;;;;;;2.04;79.27;99995.28;1686704;85;21128;-73
2022/02/06 03:13:05;;;;;;;5.78;3.00;;;;;;;2.03;79.36;99987.88;1760677;81;20997;-73
2022/02/06 03:15:46;;;;;;;5.75;2.58;;;;;;;2.01;79.50;99983.20;1716567;83;21085;-73
2022/02/06 03:18:18;;;;;;;3.60;1.90;;;;;;;2.01;79.61;99983.20;1718479;82;21492;-73
2022/02/06 03:20:43;;;;;;;5.45;2.20;;;;;;;2.02;79.72;99978.30;1716078;83;21137;-73
2022/02/06 03:23:10;;;;;;;5.15;2.05;;;;;;;2.02;79.83;99974.36;1716828;82;21006;-73
2022/02/06 03:25:53;;;;;;;8.90;2.17;;;;;;;2.00;80.00;99974.50;1718300;83;22197;-73
2022/02/06 03:28:22;;;;;;;3.10;2.00;;;;;;;2.00;80.08;99969.24;1716829;82;21029;-73
2022/02/06 03:30:48;;;;;;;5.70;2.02;;;;;;;2.01;80.22;99962.16;1716308;82;21483;-73
2022/02/06 03:33:14;;;;;;;5.83;2.58;;;;;;;2.04;80.36;99955.84;1716868;83;20978;-73
2022/02/06 03:35:40;;;;;;;4.60;2.33;;;;;;;2.04;80.46;99955.84;1716697;83;21002;-73
2022/02/06 03:38:06;;;;;;;4.10;2.65;;;;;;;2.04;80.53;99938.27;1716639;83;21979;-73
2022/02/06 03:40:53;;;;;;;8.98;2.65;;;;;;;2.05;80.63;99946.97;1716406;83;21534;-73
2022/02/06 03:45:45;;;;;;;3.95;2.70;;;;;;;2.01;80.83;99934.55;1664045;83;21283;-73
2022/02/06 03:48:13;;;;;;;7.00;2.75;;;;;;;2.00;80.91;99934.22;1718186;82;20999;-73
2022/02/06 03:50:36;;;;;;;9.55;3.45;;;;;;;1.97;81.00;99918.70;1716489;83;22102;-73
2022/02/06 03:53:02;;;;;;;3.98;2.33;;;;;;;1.94;81.09;99916.30;1716637;82;20983;-73
2022/02/06 03:55:31;;;;;;;3.67;2.27;;;;;;;1.93;81.19;99904.14;1717138;83;21018;-73
2022/02/06 03:57:56;;;;;;;6.60;2.70;;;;;;;1.94;81.24;99907.94;1725035;82;21003;-73
2022/02/06 04:00:26;;;;;;;5.58;3.10;;;;;;;1.95;81.31;99910.09;1747413;82;21039;-73
2022/02/06 04:02:52;;;;;;;4.83;2.20;;;;;;;1.95;81.38;99901.73;1748140;82;21524;-73
2022/02/06 04:05:19;;;;;;;6.37;2.98;;;;;;;1.96;81.46;99902.09;1747720;82;21039;-73
2022/02/06 04:07:46;;;;;;;6.20;2.85;;;;;;;1.96;81.55;99895.99;1747843;81;21035;-73
2022/02/06 04:10:13;;;;;;;5.75;2.98;;;;;;;1.95;81.62;99891.69;1747835;82;21023;-73
2022/02/06 04:12:42;;;;;;;3.67;2.37;;;;;;;1.95;81.70;99885.11;1748029;82;21008;-72
2022/02/06 04:15:24;;;;;;;4.67;2.50;;;;;;;1.95;81.77;99886.42;1747856;82;21567;-73
2022/02/06 04:17:48;;;;;;;3.15;1.70;;;;;;;1.94;81.88;99879.02;1746713;82;21078;-73
2022/02/06 04:20:14;;;;;;;4.33;2.10;;;;;;;1.93;81.96;99865.54;1747631;82;21063;-73
2022/02/06 04:22:40;;;;;;;5.47;1.95;;;;;;;1.94;82.04;99867.66;1747789;82;21008;-73
2022/02/06 04:25:06;;;;;;;2.87;1.70;;;;;;;1.93;82.13;99863.39;1747922;82;21042;-73
2022/02/06 04:27:32;;;;;;;3.85;1.60;;;;;;;1.94;82.23;99847.94;1747857;81;21305;-73
2022/02/06 04:29:58;;;;;;;3.73;1.80;;;;;;;1.94;82.29;99851.41;1747584;80;20869;-73
2022/02/06 04:32:29;;;;;;;5.08;2.30;;;;;;;1.97;82.42;99847.71;1747885;81;20920;-73
2022/02/06 04:34:54;;;;;;;5.47;2.10;;;;;;;1.96;82.51;99843.41;1746246;82;21567;-73
2022/02/06 04:37:55;;;;;;;6.80;2.98;;;;;;;1.95;82.62;99818.06;1747896;82;21007;-73
2022/02/06 04:45:44;;;;;;;5.28;2.30;;;;;;;1.96;82.89;99809.23;1747920;80;21012;-73
2022/02/06 04:51:14;;;;;;;2.98;1.82;;;;;;;1.96;83.04;99805.28;1661751;82;21081;-73
2022/02/06 05:17:49;;;;;;;4.35;1.72;;;;;;;2.03;83.68;99772.25;1747619;80;21059;-73
2022/02/06 05:30:46;;;;;;;5.15;2.52;;;;;;;2.10;83.94;99756.30;1723022;82;21551;-72
2022/02/06 05:33:03;;;;;;;3.22;1.45;;;;;;;2.11;83.98;99755.31;1726351;82;21287;-72
2022/02/06 05:35:29;;;;;;;7.87;1.60;;;;;;;2.13;84.04;99753.40;1691125;83;21036;-73
2022/02/06 05:37:55;;;;;;;3.20;1.65;;;;;;;2.16;84.13;99740.45;1718065;83;21071;-73
2022/02/06 05:40:21;;;;;;;4.25;1.50;;;;;;;2.17;84.18;99742.97;1717923;83;20928;-73
2022/02/06 05:42:47;;;;;;;2.77;1.27;;;;;;;2.19;84.23;99742.34;1718003;82;21619;-72
2022/02/06 05:45:18;;;;;;;3.30;1.50;;;;;;;2.21;84.28;99732.53;1717886;83;21137;-73
2022/02/06 05:47:41;;;;;;;2.47;1.40;;;;;;;2.23;84.34;99737.16;1717251;83;21051;-72
2022/02/06 05:50:08;;;;;;;3.92;1.50;;;;;;;2.24;84.39;99729.63;1717908;83;21018;-73
2022/02/06 05:52:34;;;;;;;2.45;1.70;;;;;;;2.23;84.42;99730.59;1717765;83;21056;-72
2022/02/06 05:55:00;;;;;;;4.22;1.67;;;;;;;2.23;84.48;99726.64;1717731;83;21457;-73
2022/02/06 05:57:26;;;;;;;4.33;1.90;;;;;;;2.21;84.49;99722.02;1717696;82;21956;-72
2022/02/06 05:59:52;;;;;;;4.62;2.12;;;;;;;2.22;84.52;99725.45;1717951;83;21039;-73
2022/02/06 06:02:18;;;;;;;2.85;1.40;;;;;;;2.23;84.52;99727.95;1718256;83;21527;-72
2022/02/06 06:04:44;;;;;;;5.35;1.80;;;;;;;2.24;84.59;99725.69;1717972;82;21082;-73
2022/02/06 06:07:10;;;;;;;2.85;1.30;;;;;;;2.25;84.59;99711.55;1717957;82;21697;-72
2022/02/06 06:09:36;;;;;;;3.33;1.50;;;;;;;2.30;84.66;99708.05;1718033;82;21152;-73
2022/02/06 06:12:02;;;;;;;2.65;1.72;;;;;;;2.31;84.68;99699.20;1718041;82;20987;-73
2022/02/06 06:14:30;;;;;;;4.20;1.90;;;;;;;2.32;84.71;99696.89;1717788;83;21063;-73
2022/02/06 06:16:56;;;;;;;1.57;1.40;;;;;;;2.33;84.76;99694.62;1718185;83;21095;-73
2022/02/06 06:19:23;;;;;;;3.47;1.37;;;;;;;2.33;84.80;99692.47;1717957;83;21539;-73
2022/02/06 06:21:54;;;;;;;2.60;1.52;;;;;;;2.34;84.82;99700.72;1717831;83;21134;-73
2022/02/06 06:24:18;;;;;;;4.08;1.50;;;;;;;2.33;84.87;99693.30;1717611;83;21023;-73
2022/02/06 06:26:44;;;;;;;1.45;1.10;;;;;;;2.34;84.89;99691.03;1717830;82;21035;-73
2022/02/06 06:29:10;;;;;;;4.25;1.35;;;;;;;2.35;84.93;99687.92;1718216;83;20892;-73
2022/02/06 06:31:36;;;;;;;2.80;1.55;;;;;;;2.36;85.01;99687.77;1718272;83;20928;-73
2022/02/06 06:34:02;;;;;;;2.55;1.02;;;;;;;2.37;85.00;99693.38;1717799;83;21114;-73
2022/02/06 06:36:31;;;;;;;1.90;1.00;;;;;;;2.36;85.06;99685.13;1717957;83;21114;-72
2022/02/06 06:38:56;;;;;;;1.70;1.35;;;;;;;2.36;85.08;99674.61;1717655;83;21083;-73
2022/02/06 06:41:22;;;;;;;1.77;1.30;;;;;;;2.36;85.13;99669.35;1717625;82;21505;-72
2022/02/06 06:43:48;;;;;;;2.50;1.45;;;;;;;2.37;85.17;99673.66;1717846;83;21040;-72
2022/02/06 06:46:14;;;;;;;2.65;1.17;;;;;;;2.37;85.19;99669.70;1718141;83;21145;-73
2022/02/06 06:48:40;;;;;;;3.22;1.52;;;;;;;2.37;85.24;99661.81;1717638;83;21055;-73
2022/02/06 06:51:09;;;;;;;3.02;1.40;;;;;;;2.38;85.25;99660.86;1717961;83;21087;-73
2022/02/06 06:53:38;;;;;;;1.45;1.07;;;;;;;2.39;85.29;99660.38;1717797;83;21059;-72
2022/02/06 06:56:09;;;;;;;2.87;1.37;;;;;;;2.41;85.34;99648.73;1717773;83;21023;-73
2022/02/06 06:58:40;;;;;;;1.35;1.07;;;;;;;2.41;85.37;99656.63;1703606;83;21165;-73
2022/02/06 07:03:29;;;;;;;4.70;2.50;;;;;;;2.41;85.41;99646.11;1688251;83;21027;-73
2022/02/06 07:05:55;;;;;;;4.97;3.02;;;;;;;2.42;85.46;99651.73;1687828;85;21042;-73
2022/02/06 07:08:21;;;;;;;3.58;1.75;;;;;;;2.44;85.49;99641.05;1688008;85;21395;-72
2022/02/06 07:10:48;;;;;;;6.00;2.33;;;;;;;2.44;85.53;99635.30;1687998;84;21175;-73
2022/02/06 07:13:14;;;;;;;3.87;1.70;;;;;;;2.43;85.55;99634.95;1730480;83;20995;-72
2022/02/06 07:15:40;;;;;;;3.55;1.67;;;;;;;2.45;85.59;99630.88;1730560;83;20989;-73
2022/02/06 07:18:06;;;;;;;3.90;1.52;;;;;;;2.46;85.63;99625.97;1699554;83;21056;-73
2022/02/06 07:20:35;;;;;;;2.17;1.40;;;;;;;2.50;85.65;99618.13;1730519;83;21009;-73
2022/02/06 07:23:01;;;;;;;3.27;1.37;;;;;;;2.51;85.69;99615.37;1730533;82;21178;-73
2022/02/06 07:25:27;;;;;;;2.12;1.10;;;;;;;2.56;85.71;99599.66;1730523;83;21002;-73
2022/02/06 07:27:54;;;;;;;4.37;1.50;;;;;;;2.57;85.75;99609.22;1730281;82;21514;-73
2022/02/06 07:30:20;;;;;;;2.30;1.10;;;;;;;2.60;85.78;99599.73;1730705;83;21005;-73
2022/02/06 07:32:47;;;;;;;3.10;1.62;;;;;;;2.63;85.81;99600.77;1730522;83;21901;-73
2022/02/06 07:35:13;;;;;;;3.87;1.60;;;;;;;2.65;85.84;99593.55;1730361;83;21073;-73
2022/02/06 07:37:48;;;;;;;31.45;8.70;;;;;;;2.68;85.89;99590.63;1730564;83;21037;-73
2022/02/06 07:40:14;;;;;;;32.85;8.95;;;;;;;2.69;85.92;99583.08;1730207;81;21041;-73
2022/02/06 07:42:40;;;;;;;24.52;7.10;;;;;;;2.72;85.94;99584.12;1730480;82;20966;-73
2022/02/06 07:45:09;;;;;;;26.65;8.48;;;;;;;2.73;85.95;99572.63;1730368;82;21042;-73
2022/02/06 07:47:37;;;;;;;8.13;3.27;;;;;;;2.75;85.98;99570.67;1730390;83;21723;-73
2022/02/06 07:50:06;;;;;;;2.52;1.22;;;;;;;2.78;86.00;99565.16;1730318;83;21481;-73
2022/02/06 07:52:32;;;;;;;2.25;1.10;;;;;;;2.83;86.04;99574.75;1730497;82;21063;-73
2022/02/06 07:54:58;;;;;;;1.62;1.05;;;;;;;2.85;86.06;99564.42;1730273;82;20977;-73
2022/02/06 07:57:24;;;;;;;5.20;2.60;;;;;;;2.87;86.09;99562.50;1730241;82;20972;-73
2022/02/06 07:59:51;;;;;;;2.30;1.22;;;;;;;2.90;86.13;99556.11;1730340;81;21169;-73
2022/02/06 08:02:18;;;;;;;2.83;1.72;;;;;;;2.94;86.13;99560.13;1730061;83;20974;-73
2022/02/06 08:04:48;;;;;;;7.47;2.55;;;;;;;2.95;86.16;99552.09;1730251;83;21560;-73
2022/02/06 08:07:15;;;;;;;1.85;1.32;;;;;;;2.99;86.19;99539.47;1730473;81;21057;-73
2022/02/06 08:12:08;;;;;;;1.60;1.27;;;;;;;3.06;86.20;99537.09;1730395;83;21096;-73
2022/02/06 08:17:15;;;;;;;2.77;1.37;;;;;;;3.12;86.25;99538.66;1730095;83;21808;-73
2022/02/06 08:19:43;;;;;;;5.40;1.50;;;;;;;3.15;86.30;99539.69;1731947;81;20981;-73
2022/02/06 08:22:10;;;;;;;2.85;1.30;;;;;;;3.19;86.32;99534.48;1751798;80;21512;-73
2022/02/06 08:24:36;;;;;;;5.37;3.08;;;;;;;3.24;86.32;99523.00;1766265;81;21047;-73
2022/02/06 08:27:02;;;;;;;3.08;1.80;;;;;;;3.28;86.34;99514.31;1728250;81;21002;-73
2022/02/06 08:29:28;;;;;;;2.65;1.62;;;;;;;3.30;86.37;99520.30;1726999;83;21462;-73
2022/02/06 08:31:54;;;;;;;5.90;1.42;;;;;;;3.33;86.38;99519.52;1726476;83;21061;-73
2022/02/06 08:34:20;;;;;;;3.58;1.50;;;;;;;3.38;86.43;99509.83;1726861;83;21045;-73
2022/02/06 08:36:46;;;;;;;3.55;1.70;;;;;;;3.40;86.43;99504.78;1726779;83;21024;-73
2022/02/06 08:39:12;;;;;;;2.15;1.12;;;;;;;3.44;86.45;99503.52;1698955;83;21506;-73
2022/02/06 08:41:38;;;;;;;3.45;1.77;;;;;;;3.49;86.47;99503.05;1730609;83;21705;-73
2022/02/06 08:44:05;;;;;;;4.72;2.92;;;;;;;3.55;86.48;99504.29;1730424;83;20886;-73
2022/02/06 08:46:31;;;;;;;8.70;4.55;;;;;;;3.56;86.51;99489.63;1730519;82;21008;-74
2022/02/06 08:48:57;;;;;;;4.70;2.67;;;;;;;3.58;86.53;99482.91;1748218;81;21148;-73
2022/02/06 08:51:23;;;;;;;3.17;2.00;;;;;;;3.60;86.55;99488.84;1766462;81;21095;-73
2022/02/06 08:53:52;;;;;;;5.05;2.75;;;;;;;3.63;86.54;99486.74;1754074;79;21504;-73
2022/02/06 08:56:18;;;;;;;2.33;1.47;;;;;;;3.66;86.56;99480.36;1727752;81;21033;-73
2022/02/06 08:58:44;;;;;;;4.33;1.80;;;;;;;3.66;86.58;99488.27;1731912;81;21475;-73
2022/02/06 09:01:10;;;;;;;11.57;6.95;;;;;;;3.69;86.58;99482.70;1731098;81;21218;-73
2022/02/06 09:03:36;;;;;;;16.15;6.95;;;;;;;3.71;86.59;99486.00;1759981;81;21442;-73
2022/02/06 09:06:03;;;;;;;17.32;6.40;;;;;;;3.75;86.59;99487.38;1761116;81;21045;-73
2022/02/06 09:08:29;;;;;;;34.58;13.43;;;;;;;3.76;86.60;99487.72;1761266;81;20982;-73
